createdAt,value
2018-12-05T00:02:35.416Z,98.46
2018-12-05T00:05:40.247Z,98.62
2018-12-05T00:08:51.706Z,98.43
2018-12-05T00:11:56.347Z,97.79
2018-12-05T00:15:01.707Z,97.76
2018-12-05T00:18:06.336Z,98.11
2018-12-05T00:21:10.995Z,97.87
2018-12-05T00:24:16.049Z,98.26
2018-12-05T00:27:20.701Z,98.05
2018-12-05T00:30:25.877Z,98.52
2018-12-05T00:33:30.816Z,98.44
2018-12-05T00:36:35.467Z,98.48
2018-12-05T00:39:40.114Z,98.39
2018-12-05T00:42:44.777Z,97.01
2018-12-05T00:45:49.320Z,96.96
2018-12-05T00:48:53.917Z,96.57
2018-12-05T00:51:58.503Z,96.11
2018-12-05T00:55:03.097Z,96.71
2018-12-05T00:58:07.613Z,96.92
2018-12-05T01:01:12.453Z,97.15
2018-12-05T01:04:17.150Z,97.42
2018-12-05T01:07:21.639Z,97.72
2018-12-05T01:10:26.263Z,97.52
2018-12-05T01:13:30.837Z,97.91
2018-12-05T01:16:35.467Z,97.68
2018-12-05T01:19:40.014Z,97.92
2018-12-05T01:22:44.551Z,97.73
2018-12-05T01:25:49.088Z,97.66
2018-12-05T01:28:53.698Z,97.65
2018-12-05T01:31:58.212Z,97.94
2018-12-05T01:35:02.736Z,97.79
2018-12-05T01:38:07.284Z,97.81
2018-12-05T01:41:12.068Z,97.00
2018-12-05T01:44:16.609Z,96.62
2018-12-05T01:47:21.157Z,96.37
2018-12-05T01:50:25.650Z,95.67
2018-12-05T01:53:30.268Z,96.69
2018-12-05T01:56:34.760Z,97.20
2018-12-05T01:59:39.322Z,95.85
2018-12-05T02:02:44.107Z,95.62
2018-12-05T02:05:49.444Z,96.55
2018-12-05T02:08:53.987Z,96.55
2018-12-05T02:11:58.491Z,96.61
2018-12-05T02:15:03.117Z,96.46
2018-12-05T02:21:28.817Z,97.80
2018-12-05T02:24:33.374Z,97.59
2018-12-05T02:27:37.935Z,97.33
2018-12-05T02:30:42.777Z,97.12
2018-12-05T02:33:47.440Z,97.51
2018-12-05T02:36:52.177Z,96.75
2018-12-05T02:39:56.714Z,96.58
2018-12-05T02:43:01.210Z,96.91
2018-12-05T02:46:05.736Z,96.65
2018-12-05T02:49:10.451Z,96.63
2018-12-05T02:52:15.093Z,96.53
2018-12-05T02:55:19.771Z,96.72
2018-12-05T02:58:24.378Z,97.04
2018-12-05T03:01:29.024Z,96.63
2018-12-05T03:04:33.631Z,96.73
2018-12-05T03:07:38.302Z,96.19
2018-12-05T03:10:42.797Z,96.57
2018-12-05T03:17:00.605Z,95.85
2018-12-05T03:20:05.669Z,96.55
2018-12-05T03:23:10.291Z,96.60
2018-12-05T03:26:14.953Z,97.28
2018-12-05T03:29:19.658Z,97.24
2018-12-05T03:32:24.420Z,96.97
2018-12-05T03:35:34.672Z,96.70
2018-12-05T03:38:39.192Z,96.67
2018-12-05T03:41:43.757Z,96.36
2018-12-05T03:44:48.234Z,96.20
2018-12-05T03:47:52.746Z,96.64
2018-12-05T03:50:57.422Z,96.91
2018-12-05T03:54:02.031Z,96.99
2018-12-05T03:57:06.626Z,97.66
2018-12-05T04:00:11.602Z,96.96
2018-12-05T04:03:16.163Z,96.78
2018-12-05T04:06:20.739Z,96.36
2018-12-05T04:09:25.302Z,96.88
2018-12-05T04:12:29.963Z,96.98
2018-12-05T04:15:34.878Z,96.52
2018-12-05T04:18:39.583Z,95.76
2018-12-05T04:21:44.208Z,96.48
2018-12-05T04:24:48.945Z,96.44
2018-12-05T04:27:53.455Z,96.64
2018-12-05T04:30:57.963Z,96.87
2018-12-05T04:34:02.519Z,97.22
2018-12-05T04:37:07.151Z,97.12
2018-12-05T04:40:11.813Z,97.40
2018-12-05T04:43:16.338Z,97.00
2018-12-05T04:46:20.833Z,97.48
2018-12-05T04:49:25.392Z,96.65
2018-12-05T04:52:29.986Z,97.20
2018-12-05T04:55:34.565Z,97.58
2018-12-05T04:58:39.297Z,97.03
2018-12-05T05:01:43.981Z,96.50
2018-12-05T05:04:48.586Z,96.62
2018-12-05T05:07:53.252Z,96.76
2018-12-05T05:10:57.964Z,96.64
2018-12-05T05:14:02.517Z,96.62
2018-12-05T05:17:07.030Z,96.46
2018-12-05T05:20:12.027Z,96.60
2018-12-05T05:23:16.802Z,96.31
2018-12-05T05:26:21.544Z,96.30
2018-12-05T05:29:26.076Z,96.53
2018-12-05T05:32:30.571Z,96.56
2018-12-05T05:35:35.093Z,96.65
2018-12-05T05:38:39.661Z,96.81
2018-12-05T05:41:44.201Z,96.94
2018-12-05T05:44:48.750Z,96.35
2018-12-05T05:47:53.271Z,96.30
2018-12-05T05:50:57.864Z,95.99
2018-12-05T05:54:02.425Z,96.56
2018-12-05T05:57:06.973Z,96.38
2018-12-05T06:00:11.612Z,96.05
2018-12-05T06:03:16.248Z,95.79
2018-12-05T06:06:21.044Z,95.58
2018-12-05T06:09:25.571Z,96.08
2018-12-05T06:12:30.264Z,95.58
2018-12-05T06:15:34.838Z,96.15
2018-12-05T06:18:39.534Z,95.69
2018-12-05T06:21:44.182Z,96.01
2018-12-05T06:24:48.714Z,96.00
2018-12-05T06:27:55.608Z,95.96
2018-12-05T06:31:00.154Z,96.90
2018-12-05T06:34:04.807Z,96.72
2018-12-05T06:37:09.294Z,96.40
2018-12-05T06:40:13.813Z,95.76
2018-12-05T06:43:18.501Z,96.18
2018-12-05T06:46:23.253Z,95.74
2018-12-05T06:49:27.848Z,96.23
2018-12-05T06:52:32.330Z,96.44
2018-12-05T06:55:39.256Z,96.26
2018-12-05T06:58:43.524Z,95.71
2018-12-05T07:01:48.141Z,95.44
2018-12-05T07:04:52.744Z,95.61
2018-12-05T07:07:57.275Z,95.27
2018-12-05T07:11:01.972Z,94.99
2018-12-05T07:14:07.220Z,94.90
2018-12-05T07:17:11.857Z,94.51
2018-12-05T07:20:16.395Z,93.82
2018-12-05T07:23:20.933Z,94.07
2018-12-05T07:26:25.513Z,94.44
2018-12-05T07:29:30.063Z,94.48
2018-12-05T07:32:34.592Z,94.27
2018-12-05T07:35:39.273Z,93.94
2018-12-05T07:38:43.849Z,93.28
2018-12-05T07:41:48.459Z,93.32
2018-12-05T07:44:52.899Z,92.93
2018-12-05T07:47:57.481Z,92.00
2018-12-05T07:51:02.098Z,92.27
2018-12-05T07:54:06.750Z,92.85
2018-12-05T07:57:11.284Z,92.92
2018-12-05T08:00:15.912Z,92.34
2018-12-05T08:03:20.554Z,92.72
2018-12-05T08:06:25.088Z,92.67
2018-12-05T08:09:29.710Z,91.57
2018-12-05T08:12:34.337Z,91.92
2018-12-05T08:15:38.907Z,92.34
2018-12-05T08:18:43.517Z,91.76
2018-12-05T08:21:48.261Z,91.60
2018-12-05T08:24:52.833Z,91.60
2018-12-05T08:27:57.404Z,91.88
2018-12-05T08:31:02.034Z,91.88
2018-12-05T08:34:06.699Z,91.76
2018-12-05T08:37:11.224Z,92.12
2018-12-05T08:40:15.857Z,91.23
2018-12-05T08:43:20.428Z,92.25
2018-12-05T08:46:24.953Z,90.61
2018-12-05T08:49:29.549Z,90.05
2018-12-05T08:52:34.266Z,90.37
2018-12-05T08:55:38.873Z,90.16
2018-12-05T08:58:43.441Z,90.17
2018-12-05T09:01:47.976Z,90.62
2018-12-05T09:04:52.552Z,90.61
2018-12-05T09:07:57.082Z,89.62
2018-12-05T09:11:01.668Z,88.68
2018-12-05T09:14:06.406Z,87.73
2018-12-05T09:17:10.879Z,87.91
2018-12-05T09:20:15.674Z,87.22
2018-12-05T09:23:20.189Z,87.73
2018-12-05T09:26:24.773Z,86.83
2018-12-05T09:29:29.335Z,86.50
2018-12-05T09:32:33.979Z,87.06
2018-12-05T09:35:38.545Z,87.32
2018-12-05T09:38:43.188Z,86.46
2018-12-05T09:41:47.793Z,86.73
2018-12-05T09:44:52.402Z,86.21
2018-12-05T09:47:57.880Z,85.16
2018-12-05T09:51:02.542Z,85.41
2018-12-05T09:54:07.269Z,85.40
2018-12-05T09:57:11.821Z,86.01
2018-12-05T10:00:16.404Z,84.67
2018-12-05T10:03:20.917Z,85.87
2018-12-05T10:06:25.505Z,85.89
2018-12-05T10:09:29.976Z,86.25
2018-12-05T10:12:34.669Z,86.40
2018-12-05T10:15:39.087Z,86.44
2018-12-05T10:18:43.713Z,85.57
2018-12-05T10:21:48.273Z,86.53
2018-12-05T10:24:52.892Z,86.05
2018-12-05T10:27:57.547Z,85.61
2018-12-05T10:31:02.074Z,85.40
2018-12-05T10:34:06.652Z,85.35
2018-12-05T10:37:11.285Z,85.48
2018-12-05T10:40:16.395Z,85.64
2018-12-05T10:43:21.045Z,86.78
2018-12-05T10:46:25.677Z,85.53
2018-12-05T10:49:30.296Z,86.05
2018-12-05T10:52:34.794Z,85.74
2018-12-05T10:55:39.549Z,86.20
2018-12-05T10:58:44.188Z,85.31
2018-12-05T11:03:57.884Z,84.21
2018-12-05T11:08:08.455Z,84.76
2018-12-05T11:11:18.243Z,84.82
2018-12-05T11:14:27.946Z,84.99
2018-12-05T11:17:37.847Z,85.36
2018-12-05T11:20:47.633Z,84.70
2018-12-05T11:23:57.430Z,84.71
2018-12-05T11:27:02.307Z,84.51
2018-12-05T11:30:08.550Z,84.67
2018-12-05T11:33:13.225Z,84.63
2018-12-05T11:36:17.813Z,84.69
2018-12-05T11:39:22.350Z,83.79
2018-12-05T11:42:26.919Z,84.10
2018-12-05T11:45:31.632Z,84.80
2018-12-05T11:48:36.318Z,84.30
2018-12-05T11:51:40.886Z,84.09
2018-12-05T11:54:45.508Z,83.83
2018-12-05T11:57:50.169Z,82.83
2018-12-05T12:00:54.999Z,83.85
2018-12-05T12:03:59.763Z,83.76
2018-12-05T12:07:04.402Z,83.16
2018-12-05T12:10:09.303Z,83.42
2018-12-05T12:13:13.828Z,83.45
2018-12-05T12:16:19.060Z,82.50
2018-12-05T12:19:23.687Z,82.29
2018-12-05T12:22:28.239Z,81.51
2018-12-05T12:25:33.013Z,80.95
2018-12-05T12:28:37.588Z,81.79
2018-12-05T12:31:42.152Z,83.37
2018-12-05T12:34:46.892Z,82.77
2018-12-05T12:37:51.528Z,81.41
2018-12-05T12:40:56.365Z,81.46
2018-12-05T12:44:00.887Z,81.68
2018-12-05T12:47:05.518Z,81.96
2018-12-05T12:50:10.337Z,82.28
2018-12-05T12:53:14.835Z,82.42
2018-12-05T12:56:19.350Z,81.38
2018-12-05T12:59:23.929Z,81.91
2018-12-05T13:02:28.466Z,81.54
2018-12-05T13:05:33.027Z,81.75
2018-12-05T13:08:37.571Z,82.39
2018-12-05T13:11:42.091Z,84.12
2018-12-05T13:14:46.666Z,84.35
2018-12-05T13:17:51.180Z,84.08
2018-12-05T13:20:55.799Z,83.96
2018-12-05T13:24:00.492Z,83.76
2018-12-05T13:27:05.066Z,84.69
2018-12-05T13:30:22.172Z,85.04
2018-12-05T13:33:26.768Z,84.07
2018-12-05T13:36:31.552Z,84.16
2018-12-05T13:39:36.237Z,84.05
2018-12-05T13:42:40.819Z,84.69
2018-12-05T13:45:45.559Z,84.86
2018-12-05T13:48:50.121Z,85.10
2018-12-05T13:51:54.712Z,85.18
2018-12-05T13:54:59.249Z,85.70
2018-12-05T13:58:03.805Z,86.18
2018-12-05T14:01:08.450Z,85.85
2018-12-05T14:04:12.966Z,85.46
2018-12-05T14:07:17.566Z,85.90
2018-12-05T14:10:22.194Z,85.93
2018-12-05T14:13:26.769Z,85.70
2018-12-05T14:16:31.311Z,84.84
2018-12-05T14:19:35.819Z,84.89
2018-12-05T14:22:40.368Z,84.52
2018-12-05T14:25:44.908Z,83.84
2018-12-05T14:28:49.430Z,83.71
2018-12-05T14:31:54.393Z,83.69
2018-12-05T14:34:59.041Z,83.94
2018-12-05T14:38:03.674Z,84.59
2018-12-05T14:41:08.458Z,85.45
2018-12-05T14:44:13.003Z,86.12
2018-12-05T14:47:17.642Z,85.91
2018-12-05T14:50:22.181Z,86.23
2018-12-05T14:53:26.688Z,86.71
2018-12-05T14:56:31.342Z,86.33
2018-12-05T14:59:35.909Z,86.04
2018-12-05T15:02:40.502Z,86.75
2018-12-05T15:05:45.132Z,87.38
2018-12-05T15:08:49.746Z,87.73
2018-12-05T15:11:54.332Z,87.71
2018-12-05T15:14:58.903Z,87.05
2018-12-05T15:18:03.737Z,87.21
2018-12-05T15:21:08.298Z,87.97
2018-12-05T15:24:12.961Z,88.37
2018-12-05T15:27:17.552Z,88.36
2018-12-05T15:30:22.268Z,88.26
2018-12-05T15:33:26.949Z,87.17
2018-12-05T15:36:31.625Z,88.21
2018-12-05T15:39:36.183Z,88.79
2018-12-05T15:42:40.944Z,88.30
2018-12-05T15:45:45.615Z,88.31
2018-12-05T15:48:50.316Z,88.40
2018-12-05T15:51:55.165Z,88.73
2018-12-05T15:54:59.669Z,88.65
2018-12-05T15:58:04.370Z,88.08
2018-12-05T16:01:09.117Z,89.53
2018-12-05T16:04:13.706Z,89.69
2018-12-05T16:07:18.337Z,89.87
2018-12-05T16:10:22.933Z,89.29
2018-12-05T16:13:27.554Z,88.00
2018-12-05T16:16:32.208Z,88.44
2018-12-05T16:19:36.801Z,88.93
2018-12-05T16:22:41.335Z,88.84
2018-12-05T16:25:45.963Z,89.36
2018-12-05T16:28:50.621Z,89.11
2018-12-05T16:31:55.251Z,89.02
2018-12-05T16:35:00.567Z,89.60
2018-12-05T16:38:05.098Z,89.91
2018-12-05T16:41:09.684Z,90.51
2018-12-05T16:44:14.239Z,90.66
2018-12-05T16:47:18.864Z,90.14
2018-12-05T16:50:23.508Z,90.20
2018-12-05T16:53:28.068Z,89.52
2018-12-05T16:56:32.600Z,88.81
2018-12-05T16:59:37.250Z,89.94
2018-12-05T17:02:41.885Z,90.07
2018-12-05T17:05:46.502Z,90.00
2018-12-05T17:08:51.042Z,90.72
2018-12-05T17:11:55.642Z,90.34
2018-12-05T17:18:14.938Z,90.58
2018-12-05T17:21:19.430Z,89.99
2018-12-05T17:24:24.801Z,89.29
2018-12-05T17:27:29.380Z,88.51
2018-12-05T17:30:33.974Z,89.64
2018-12-05T17:33:38.624Z,89.38
2018-12-05T17:36:43.225Z,90.50
2018-12-05T17:39:47.800Z,90.26
2018-12-05T17:42:52.383Z,90.53
2018-12-05T17:45:57.054Z,89.37
2018-12-05T17:49:03.006Z,89.56
2018-12-05T17:52:08.855Z,88.62
2018-12-05T17:55:13.633Z,88.36
2018-12-05T17:58:18.130Z,88.19
2018-12-05T18:01:22.950Z,88.15
2018-12-05T18:04:27.524Z,88.16
2018-12-05T18:07:32.234Z,87.98
2018-12-05T18:10:36.774Z,87.35
2018-12-05T18:13:41.447Z,88.05
2018-12-05T18:16:46.055Z,88.54
2018-12-05T18:19:50.671Z,87.94
2018-12-05T18:22:55.305Z,87.85
2018-12-05T18:26:00.028Z,87.41
2018-12-05T18:29:04.802Z,87.47
2018-12-05T18:32:09.346Z,88.50
2018-12-05T18:35:14.078Z,88.64
2018-12-05T18:38:18.670Z,88.46
2018-12-05T18:44:37.726Z,88.47
2018-12-05T18:47:42.251Z,88.30
2018-12-05T18:50:46.819Z,88.29
2018-12-05T18:53:51.509Z,88.99
2018-12-05T18:56:56.056Z,88.42
2018-12-05T19:00:01.504Z,88.33
2018-12-05T19:03:07.494Z,88.20
2018-12-05T19:06:12.242Z,87.99
2018-12-05T19:09:16.779Z,88.14
2018-12-05T19:12:21.727Z,88.19
2018-12-05T19:15:26.594Z,88.31
2018-12-05T19:18:31.151Z,88.58
2018-12-05T19:21:35.805Z,88.54
2018-12-05T19:24:40.433Z,88.04
2018-12-05T19:27:45.138Z,88.42
2018-12-05T19:30:49.928Z,88.27
2018-12-05T19:33:58.735Z,88.47
2018-12-05T19:37:03.676Z,88.11
2018-12-05T19:40:08.755Z,88.44
2018-12-05T19:43:13.450Z,87.47
2018-12-05T19:46:18.079Z,87.83
2018-12-05T19:49:22.744Z,88.20
2018-12-05T19:52:27.422Z,88.71
2018-12-05T19:55:32.048Z,88.43
2018-12-05T19:58:37.631Z,88.56
2018-12-05T20:01:42.568Z,88.18
2018-12-05T20:04:47.247Z,88.77
2018-12-05T20:07:51.835Z,88.56
2018-12-05T20:10:56.578Z,88.67
2018-12-05T20:14:01.205Z,88.18
2018-12-05T20:17:06.467Z,88.32
2018-12-05T20:20:11.607Z,88.23
2018-12-05T20:23:16.721Z,87.80
2018-12-05T20:26:21.492Z,87.32
2018-12-05T20:29:26.036Z,88.14
2018-12-05T20:32:30.729Z,88.71
2018-12-05T20:35:35.390Z,88.36
2018-12-05T20:38:40.842Z,89.04
2018-12-05T20:41:45.686Z,88.58
2018-12-05T20:44:50.210Z,88.77
2018-12-05T20:47:54.895Z,89.00
2018-12-05T20:50:59.524Z,88.60
2018-12-05T20:54:04.196Z,88.02
2018-12-05T20:57:08.726Z,88.84
2018-12-05T21:00:13.970Z,88.81
2018-12-05T21:03:18.620Z,88.65
2018-12-05T21:06:23.372Z,88.91
2018-12-05T21:09:27.969Z,89.52
2018-12-05T21:12:32.600Z,88.97
2018-12-05T21:15:37.342Z,88.89
2018-12-05T21:18:41.954Z,88.68
2018-12-05T21:21:46.576Z,88.67
2018-12-05T21:24:51.149Z,88.55
2018-12-05T21:27:55.715Z,89.00
2018-12-05T21:31:00.443Z,89.29
2018-12-05T21:34:05.166Z,88.96
2018-12-05T21:37:09.792Z,88.69
2018-12-05T21:40:14.279Z,88.10
2018-12-05T21:43:18.894Z,88.13
2018-12-05T21:46:23.586Z,88.40
2018-12-05T21:49:28.180Z,88.88
2018-12-05T21:52:32.827Z,88.86
2018-12-05T21:55:38.322Z,89.03
2018-12-05T21:58:42.992Z,89.20
2018-12-05T22:01:47.680Z,89.64
2018-12-05T22:04:52.290Z,88.83
2018-12-05T22:07:57.010Z,89.87
2018-12-05T22:11:01.539Z,89.81
2018-12-05T22:14:06.110Z,89.43
2018-12-05T22:17:10.948Z,90.30
2018-12-05T22:20:15.507Z,90.82
2018-12-05T22:23:20.271Z,90.87
2018-12-05T22:26:24.850Z,90.30
2018-12-05T22:29:29.449Z,89.45
2018-12-05T22:32:33.975Z,90.51
2018-12-05T22:35:38.568Z,90.14
2018-12-05T22:38:43.192Z,90.37
2018-12-05T22:41:47.862Z,90.57
2018-12-05T22:44:53.151Z,91.78
2018-12-05T22:47:57.784Z,91.69
2018-12-05T22:51:02.554Z,91.57
2018-12-05T22:54:07.095Z,90.84
2018-12-05T22:57:16.593Z,90.78
2018-12-05T23:00:26.069Z,90.58
2018-12-05T23:03:30.691Z,90.45
2018-12-05T23:06:35.926Z,90.81
2018-12-05T23:09:40.385Z,90.49
2018-12-05T23:12:45.101Z,90.71
2018-12-05T23:15:49.766Z,91.06
2018-12-05T23:18:54.487Z,91.26
2018-12-05T23:21:59.073Z,91.34
2018-12-05T23:25:03.838Z,90.78
2018-12-05T23:28:08.600Z,90.96
2018-12-05T23:31:13.209Z,91.24
2018-12-05T23:34:17.783Z,90.46
2018-12-05T23:37:22.453Z,90.99
2018-12-05T23:40:27.517Z,90.79
2018-12-05T23:43:32.915Z,91.31
2018-12-05T23:46:37.421Z,91.52
2018-12-05T23:49:42.131Z,92.27
2018-12-05T23:52:46.730Z,92.34
2018-12-05T23:55:51.275Z,92.49
2018-12-05T23:58:55.799Z,92.74
